sensor_id;sensor_type;location;lat;lon;timestamp;P1;durP1;ratioP1;P2;durP2;ratioP2
52470;SDS011;38382;53.160;7.026;2023-04-25T00:01:05;22.98;;;4.70;;
52470;SDS011;38382;53.160;7.026;2023-04-25T00:03:31;17.95;;;4.07;;
52470;SDS011;38382;53.160;7.026;2023-04-25T00:05:58;21.63;;;5.28;;
52470;SDS011;38382;53.160;7.026;2023-04-25T00:08:28;24.13;;;4.47;;
52470;SDS011;38382;53.160;7.026;2023-04-25T00:10:55;17.08;;;4.32;;
52470;SDS011;38382;53.160;7.026;2023-04-25T00:13:22;17.27;;;4.13;;
52470;SDS011;38382;53.160;7.026;2023-04-25T00:15:47;16.98;;;4.30;;
52470;SDS011;38382;53.160;7.026;2023-04-25T00:18:14;12.88;;;3.90;;
52470;SDS011;38382;53.160;7.026;2023-04-25T00:20:40;17.30;;;3.63;;
52470;SDS011;38382;53.160;7.026;2023-04-25T00:23:09;18.23;;;4.03;;
52470;SDS011;38382;53.160;7.026;2023-04-25T00:25:35;18.25;;;3.83;;
52470;SDS011;38382;53.160;7.026;2023-04-25T00:28:01;14.73;;;4.10;;
52470;SDS011;38382;53.160;7.026;2023-04-25T00:30:27;20.98;;;4.53;;
52470;SDS011;38382;53.160;7.026;2023-04-25T00:32:52;16.38;;;4.05;;
52470;SDS011;38382;53.160;7.026;2023-04-25T00:46:21;18.27;;;4.00;;
52470;SDS011;38382;53.160;7.026;2023-04-25T00:48:46;15.02;;;3.88;;
52470;SDS011;38382;53.160;7.026;2023-04-25T00:51:13;19.77;;;4.38;;
52470;SDS011;38382;53.160;7.026;2023-04-25T00:53:44;19.10;;;4.23;;
52470;SDS011;38382;53.160;7.026;2023-04-25T00:56:10;18.23;;;3.85;;
52470;SDS011;38382;53.160;7.026;2023-04-25T00:58:36;18.15;;;4.22;;
52470;SDS011;38382;53.160;7.026;2023-04-25T01:01:03;15.52;;;3.92;;
52470;SDS011;38382;53.160;7.026;2023-04-25T01:03:29;15.55;;;3.83;;
52470;SDS011;38382;53.160;7.026;2023-04-25T01:05:58;20.80;;;4.43;;
52470;SDS011;38382;53.160;7.026;2023-04-25T01:08:24;14.60;;;3.90;;
52470;SDS011;38382;53.160;7.026;2023-04-25T01:10:52;22.92;;;4.57;;
52470;SDS011;38382;53.160;7.026;2023-04-25T01:13:18;25.10;;;4.45;;
52470;SDS011;38382;53.160;7.026;2023-04-25T01:15:45;12.63;;;3.38;;
52470;SDS011;38382;53.160;7.026;2023-04-25T01:18:10;17.33;;;3.58;;
52470;SDS011;38382;53.160;7.026;2023-04-25T01:20:37;17.73;;;3.75;;
52470;SDS011;38382;53.160;7.026;2023-04-25T01:23:04;18.13;;;3.55;;
52470;SDS011;38382;53.160;7.026;2023-04-25T01:25:30;13.02;;;3.92;;
52470;SDS011;38382;53.160;7.026;2023-04-25T01:27:57;15.48;;;3.28;;
52470;SDS011;38382;53.160;7.026;2023-04-25T01:30:24;14.90;;;3.47;;
52470;SDS011;38382;53.160;7.026;2023-04-25T01:32:52;13.60;;;3.63;;
52470;SDS011;38382;53.160;7.026;2023-04-25T01:35:20;19.65;;;3.83;;
52470;SDS011;38382;53.160;7.026;2023-04-25T01:37:45;18.55;;;3.50;;
52470;SDS011;38382;53.160;7.026;2023-04-25T01:40:11;17.05;;;3.40;;
52470;SDS011;38382;53.160;7.026;2023-04-25T01:42:38;15.15;;;3.60;;
52470;SDS011;38382;53.160;7.026;2023-04-25T01:45:06;15.00;;;3.33;;
52470;SDS011;38382;53.160;7.026;2023-04-25T01:47:33;21.67;;;3.78;;
52470;SDS011;38382;53.160;7.026;2023-04-25T01:50:02;16.45;;;3.35;;
52470;SDS011;38382;53.160;7.026;2023-04-25T01:52:29;15.05;;;3.47;;
52470;SDS011;38382;53.160;7.026;2023-04-25T02:01:20;11.32;;;3.00;;
52470;SDS011;38382;53.160;7.026;2023-04-25T02:03:46;16.25;;;3.50;;
52470;SDS011;38382;53.160;7.026;2023-04-25T02:06:12;11.35;;;3.10;;
52470;SDS011;38382;53.160;7.026;2023-04-25T02:08:38;16.35;;;3.30;;
52470;SDS011;38382;53.160;7.026;2023-04-25T02:11:03;11.63;;;3.45;;
52470;SDS011;38382;53.160;7.026;2023-04-25T02:13:29;10.43;;;3.13;;
52470;SDS011;38382;53.160;7.026;2023-04-25T02:15:55;12.75;;;3.08;;
52470;SDS011;38382;53.160;7.026;2023-04-25T02:18:21;10.13;;;3.05;;
52470;SDS011;38382;53.160;7.026;2023-04-25T02:20:46;12.27;;;3.20;;
52470;SDS011;38382;53.160;7.026;2023-04-25T02:23:12;14.77;;;3.38;;
52470;SDS011;38382;53.160;7.026;2023-04-25T02:25:40;14.10;;;3.35;;
52470;SDS011;38382;53.160;7.026;2023-04-25T02:28:06;13.18;;;2.90;;
52470;SDS011;38382;53.160;7.026;2023-04-25T02:30:32;15.13;;;3.33;;
52470;SDS011;38382;53.160;7.026;2023-04-25T02:32:57;12.90;;;3.03;;
52470;SDS011;38382;53.160;7.026;2023-04-25T02:35:23;15.13;;;2.50;;
52470;SDS011;38382;53.160;7.026;2023-04-25T02:37:49;19.55;;;3.47;;
52470;SDS011;38382;53.160;7.026;2023-04-25T02:40:14;10.43;;;3.08;;
52470;SDS011;38382;53.160;7.026;2023-04-25T02:42:40;13.23;;;2.90;;
52470;SDS011;38382;53.160;7.026;2023-04-25T02:45:06;10.27;;;2.95;;
52470;SDS011;38382;53.160;7.026;2023-04-25T02:47:32;16.10;;;3.15;;
52470;SDS011;38382;53.160;7.026;2023-04-25T02:49:58;17.77;;;2.88;;
52470;SDS011;38382;53.160;7.026;2023-04-25T02:52:23;14.70;;;2.92;;
52470;SDS011;38382;53.160;7.026;2023-04-25T02:54:49;15.13;;;2.78;;
52470;SDS011;38382;53.160;7.026;2023-04-25T02:57:15;15.50;;;2.70;;
52470;SDS011;38382;53.160;7.026;2023-04-25T02:59:41;9.20;;;2.63;;
52470;SDS011;38382;53.160;7.026;2023-04-25T03:02:07;11.02;;;2.92;;
52470;SDS011;38382;53.160;7.026;2023-04-25T03:04:32;14.70;;;3.28;;
52470;SDS011;38382;53.160;7.026;2023-04-25T03:06:58;9.95;;;2.30;;
52470;SDS011;38382;53.160;7.026;2023-04-25T03:09:24;10.15;;;2.75;;
52470;SDS011;38382;53.160;7.026;2023-04-25T03:11:50;8.68;;;2.35;;
52470;SDS011;38382;53.160;7.026;2023-04-25T03:14:16;8.68;;;2.28;;
52470;SDS011;38382;53.160;7.026;2023-04-25T03:16:41;11.77;;;2.65;;
52470;SDS011;38382;53.160;7.026;2023-04-25T03:19:07;14.30;;;2.97;;
52470;SDS011;38382;53.160;7.026;2023-04-25T03:21:33;11.50;;;2.78;;
52470;SDS011;38382;53.160;7.026;2023-04-25T03:24:00;7.28;;;2.35;;
52470;SDS011;38382;53.160;7.026;2023-04-25T03:26:27;10.38;;;2.88;;
52470;SDS011;38382;53.160;7.026;2023-04-25T03:28:53;7.65;;;2.65;;
52470;SDS011;38382;53.160;7.026;2023-04-25T03:31:19;7.38;;;2.38;;
52470;SDS011;38382;53.160;7.026;2023-04-25T03:33:45;11.23;;;2.55;;
52470;SDS011;38382;53.160;7.026;2023-04-25T03:36:10;6.15;;;2.13;;
52470;SDS011;38382;53.160;7.026;2023-04-25T03:38:36;9.88;;;2.72;;
52470;SDS011;38382;53.160;7.026;2023-04-25T03:41:02;8.38;;;2.55;;
52470;SDS011;38382;53.160;7.026;2023-04-25T03:43:28;12.95;;;3.03;;
52470;SDS011;38382;53.160;7.026;2023-04-25T03:45:53;13.13;;;2.55;;
52470;SDS011;38382;53.160;7.026;2023-04-25T03:48:20;9.82;;;2.40;;
52470;SDS011;38382;53.160;7.026;2023-04-25T03:50:51;8.38;;;2.08;;
52470;SDS011;38382;53.160;7.026;2023-04-25T03:53:17;8.45;;;2.42;;
52470;SDS011;38382;53.160;7.026;2023-04-25T03:55:43;7.10;;;2.35;;
52470;SDS011;38382;53.160;7.026;2023-04-25T03:58:08;14.60;;;2.53;;
52470;SDS011;38382;53.160;7.026;2023-04-25T04:00:34;7.53;;;2.35;;
52470;SDS011;38382;53.160;7.026;2023-04-25T04:03:00;10.30;;;2.55;;
52470;SDS011;38382;53.160;7.026;2023-04-25T04:05:26;5.88;;;2.20;;
52470;SDS011;38382;53.160;7.026;2023-04-25T04:07:52;5.53;;;2.20;;
52470;SDS011;38382;53.160;7.026;2023-04-25T04:10:18;8.02;;;2.47;;
52470;SDS011;38382;53.160;7.026;2023-04-25T04:12:44;5.57;;;2.08;;
52470;SDS011;38382;53.160;7.026;2023-04-25T04:15:10;11.07;;;2.40;;
52470;SDS011;38382;53.160;7.026;2023-04-25T04:17:37;13.25;;;2.75;;
52470;SDS011;38382;53.160;7.026;2023-04-25T04:20:03;12.45;;;2.50;;
52470;SDS011;38382;53.160;7.026;2023-04-25T04:22:31;10.70;;;2.63;;
52470;SDS011;38382;53.160;7.026;2023-04-25T04:24:57;9.82;;;2.40;;
52470;SDS011;38382;53.160;7.026;2023-04-25T04:27:23;9.82;;;2.55;;
52470;SDS011;38382;53.160;7.026;2023-04-25T04:29:48;13.75;;;3.00;;
52470;SDS011;38382;53.160;7.026;2023-04-25T04:32:15;9.75;;;2.88;;
52470;SDS011;38382;53.160;7.026;2023-04-25T04:34:42;12.40;;;2.92;;
52470;SDS011;38382;53.160;7.026;2023-04-25T04:37:08;13.02;;;2.70;;
52470;SDS011;38382;53.160;7.026;2023-04-25T04:39:34;10.18;;;2.65;;
52470;SDS011;38382;53.160;7.026;2023-04-25T04:42:01;11.50;;;2.78;;
52470;SDS011;38382;53.160;7.026;2023-04-25T04:44:27;12.77;;;2.70;;
52470;SDS011;38382;53.160;7.026;2023-04-25T04:46:53;10.90;;;2.58;;
52470;SDS011;38382;53.160;7.026;2023-04-25T04:49:20;9.93;;;2.63;;
52470;SDS011;38382;53.160;7.026;2023-04-25T04:51:46;6.97;;;2.35;;
52470;SDS011;38382;53.160;7.026;2023-04-25T04:54:12;7.30;;;2.00;;
52470;SDS011;38382;53.160;7.026;2023-04-25T04:56:38;12.88;;;2.35;;
52470;SDS011;38382;53.160;7.026;2023-04-25T04:59:04;7.90;;;2.08;;
52470;SDS011;38382;53.160;7.026;2023-04-25T05:01:30;8.10;;;2.38;;
52470;SDS011;38382;53.160;7.026;2023-04-25T05:03:56;10.18;;;2.33;;
52470;SDS011;38382;53.160;7.026;2023-04-25T05:06:26;7.68;;;2.00;;
52470;SDS011;38382;53.160;7.026;2023-04-25T05:08:54;8.77;;;2.00;;
52470;SDS011;38382;53.160;7.026;2023-04-25T05:11:21;8.90;;;2.50;;
52470;SDS011;38382;53.160;7.026;2023-04-25T05:13:48;4.70;;;1.98;;
52470;SDS011;38382;53.160;7.026;2023-04-25T05:16:14;9.38;;;2.65;;
52470;SDS011;38382;53.160;7.026;2023-04-25T05:18:40;8.52;;;2.13;;
52470;SDS011;38382;53.160;7.026;2023-04-25T05:21:06;9.60;;;2.20;;
52470;SDS011;38382;53.160;7.026;2023-04-25T05:23:32;8.60;;;2.20;;
52470;SDS011;38382;53.160;7.026;2023-04-25T05:25:58;8.20;;;2.30;;
52470;SDS011;38382;53.160;7.026;2023-04-25T05:28:24;7.25;;;2.28;;
52470;SDS011;38382;53.160;7.026;2023-04-25T05:30:50;12.02;;;2.25;;
52470;SDS011;38382;53.160;7.026;2023-04-25T05:33:16;8.75;;;2.35;;
52470;SDS011;38382;53.160;7.026;2023-04-25T05:35:42;11.55;;;2.25;;
52470;SDS011;38382;53.160;7.026;2023-04-25T05:38:08;6.18;;;1.95;;
52470;SDS011;38382;53.160;7.026;2023-04-25T05:40:33;11.50;;;2.85;;
52470;SDS011;38382;53.160;7.026;2023-04-25T05:42:59;8.15;;;2.55;;
52470;SDS011;38382;53.160;7.026;2023-04-25T05:45:25;11.57;;;2.67;;
52470;SDS011;38382;53.160;7.026;2023-04-25T05:47:51;8.65;;;2.05;;
52470;SDS011;38382;53.160;7.026;2023-04-25T05:50:17;7.32;;;2.15;;
52470;SDS011;38382;53.160;7.026;2023-04-25T05:52:42;8.07;;;2.33;;
52470;SDS011;38382;53.160;7.026;2023-04-25T05:55:08;7.90;;;1.90;;
52470;SDS011;38382;53.160;7.026;2023-04-25T05:57:34;8.30;;;2.17;;
52470;SDS011;38382;53.160;7.026;2023-04-25T06:00:00;9.00;;;2.20;;
52470;SDS011;38382;53.160;7.026;2023-04-25T06:02:26;7.63;;;2.30;;
52470;SDS011;38382;53.160;7.026;2023-04-25T06:04:52;6.25;;;2.17;;
52470;SDS011;38382;53.160;7.026;2023-04-25T06:07:18;8.43;;;2.42;;
52470;SDS011;38382;53.160;7.026;2023-04-25T06:09:44;10.00;;;2.05;;
52470;SDS011;38382;53.160;7.026;2023-04-25T06:12:10;10.82;;;2.80;;
52470;SDS011;38382;53.160;7.026;2023-04-25T06:14:36;8.35;;;2.05;;
52470;SDS011;38382;53.160;7.026;2023-04-25T06:17:03;7.80;;;2.60;;
52470;SDS011;38382;53.160;7.026;2023-04-25T06:19:33;7.38;;;2.05;;
52470;SDS011;38382;53.160;7.026;2023-04-25T06:22:00;9.02;;;2.45;;
52470;SDS011;38382;53.160;7.026;2023-04-25T06:24:26;10.38;;;2.85;;
52470;SDS011;38382;53.160;7.026;2023-04-25T06:26:52;14.73;;;2.47;;
52470;SDS011;38382;53.160;7.026;2023-04-25T06:29:18;11.60;;;2.63;;
52470;SDS011;38382;53.160;7.026;2023-04-25T06:31:44;9.40;;;2.60;;
52470;SDS011;38382;53.160;7.026;2023-04-25T06:34:10;7.47;;;2.10;;
52470;SDS011;38382;53.160;7.026;2023-04-25T06:36:36;11.23;;;2.00;;
52470;SDS011;38382;53.160;7.026;2023-04-25T06:39:01;9.45;;;2.58;;
52470;SDS011;38382;53.160;7.026;2023-04-25T06:41:27;8.50;;;2.00;;
52470;SDS011;38382;53.160;7.026;2023-04-25T06:43:53;7.03;;;1.73;;
52470;SDS011;38382;53.160;7.026;2023-04-25T06:46:19;7.43;;;2.35;;
52470;SDS011;38382;53.160;7.026;2023-04-25T06:48:45;12.00;;;2.40;;
52470;SDS011;38382;53.160;7.026;2023-04-25T06:51:10;9.60;;;2.13;;
52470;SDS011;38382;53.160;7.026;2023-04-25T06:53:38;9.32;;;1.88;;
52470;SDS011;38382;53.160;7.026;2023-04-25T06:56:04;8.43;;;2.28;;
52470;SDS011;38382;53.160;7.026;2023-04-25T06:58:31;10.73;;;2.22;;
52470;SDS011;38382;53.160;7.026;2023-04-25T07:00:57;8.18;;;2.20;;
52470;SDS011;38382;53.160;7.026;2023-04-25T07:03:23;9.18;;;2.10;;
52470;SDS011;38382;53.160;7.026;2023-04-25T07:05:49;6.70;;;2.08;;
52470;SDS011;38382;53.160;7.026;2023-04-25T07:08:15;8.15;;;1.92;;
52470;SDS011;38382;53.160;7.026;2023-04-25T07:10:42;8.52;;;2.08;;
52470;SDS011;38382;53.160;7.026;2023-04-25T07:13:07;7.28;;;2.03;;
52470;SDS011;38382;53.160;7.026;2023-04-25T07:15:33;9.88;;;1.80;;
52470;SDS011;38382;53.160;7.026;2023-04-25T07:17:59;9.30;;;1.85;;
52470;SDS011;38382;53.160;7.026;2023-04-25T07:20:25;10.73;;;2.30;;
52470;SDS011;38382;53.160;7.026;2023-04-25T07:22:52;11.23;;;2.40;;
52470;SDS011;38382;53.160;7.026;2023-04-25T07:25:24;8.90;;;1.90;;
52470;SDS011;38382;53.160;7.026;2023-04-25T07:27:50;7.90;;;1.70;;
52470;SDS011;38382;53.160;7.026;2023-04-25T07:30:17;6.38;;;1.90;;
52470;SDS011;38382;53.160;7.026;2023-04-25T07:32:43;8.80;;;2.67;;
52470;SDS011;38382;53.160;7.026;2023-04-25T07:35:08;8.32;;;1.92;;
52470;SDS011;38382;53.160;7.026;2023-04-25T07:37:35;5.47;;;1.67;;
52470;SDS011;38382;53.160;7.026;2023-04-25T07:40:01;6.18;;;1.83;;
52470;SDS011;38382;53.160;7.026;2023-04-25T07:42:29;9.13;;;1.50;;
52470;SDS011;38382;53.160;7.026;2023-04-25T07:44:55;8.68;;;2.00;;
52470;SDS011;38382;53.160;7.026;2023-04-25T07:47:21;7.90;;;1.60;;
52470;SDS011;38382;53.160;7.026;2023-04-25T07:49:46;8.07;;;1.60;;
52470;SDS011;38382;53.160;7.026;2023-04-25T07:52:12;5.95;;;1.88;;
52470;SDS011;38382;53.160;7.026;2023-04-25T07:54:38;6.65;;;1.58;;
52470;SDS011;38382;53.160;7.026;2023-04-25T07:57:03;10.50;;;1.90;;
52470;SDS011;38382;53.160;7.026;2023-04-25T07:59:31;14.50;;;1.75;;
52470;SDS011;38382;53.160;7.026;2023-04-25T08:01:57;11.43;;;2.47;;
52470;SDS011;38382;53.160;7.026;2023-04-25T08:04:23;8.65;;;1.75;;
52470;SDS011;38382;53.160;7.026;2023-04-25T08:06:50;6.70;;;1.75;;
52470;SDS011;38382;53.160;7.026;2023-04-25T08:09:15;8.27;;;1.80;;
52470;SDS011;38382;53.160;7.026;2023-04-25T08:11:41;8.50;;;2.03;;
52470;SDS011;38382;53.160;7.026;2023-04-25T08:14:07;5.45;;;1.65;;
52470;SDS011;38382;53.160;7.026;2023-04-25T08:16:33;12.02;;;2.13;;
52470;SDS011;38382;53.160;7.026;2023-04-25T08:19:00;8.65;;;2.08;;
52470;SDS011;38382;53.160;7.026;2023-04-25T08:21:26;13.88;;;2.35;;
52470;SDS011;38382;53.160;7.026;2023-04-25T08:23:52;6.03;;;1.70;;
52470;SDS011;38382;53.160;7.026;2023-04-25T08:26:18;10.20;;;1.95;;
52470;SDS011;38382;53.160;7.026;2023-04-25T08:28:44;8.88;;;1.88;;
52470;SDS011;38382;53.160;7.026;2023-04-25T08:31:09;9.88;;;1.92;;
52470;SDS011;38382;53.160;7.026;2023-04-25T08:33:35;11.30;;;2.03;;
52470;SDS011;38382;53.160;7.026;2023-04-25T08:36:01;11.77;;;2.08;;
52470;SDS011;38382;53.160;7.026;2023-04-25T08:38:27;6.85;;;1.80;;
52470;SDS011;38382;53.160;7.026;2023-04-25T08:40:53;8.55;;;2.00;;
52470;SDS011;38382;53.160;7.026;2023-04-25T08:43:20;10.55;;;1.88;;
52470;SDS011;38382;53.160;7.026;2023-04-25T08:45:48;11.93;;;2.00;;
52470;SDS011;38382;53.160;7.026;2023-04-25T08:48:14;6.30;;;1.70;;
52470;SDS011;38382;53.160;7.026;2023-04-25T08:50:51;5.68;;;1.80;;
52470;SDS011;38382;53.160;7.026;2023-04-25T08:53:28;11.25;;;1.70;;
52470;SDS011;38382;53.160;7.026;2023-04-25T08:55:56;6.55;;;1.75;;
52470;SDS011;38382;53.160;7.026;2023-04-25T08:58:23;5.00;;;1.38;;
52470;SDS011;38382;53.160;7.026;2023-04-25T09:00:50;4.28;;;1.35;;
52470;SDS011;38382;53.160;7.026;2023-04-25T09:03:19;6.20;;;1.50;;
52470;SDS011;38382;53.160;7.026;2023-04-25T09:05:45;4.22;;;1.70;;
52470;SDS011;38382;53.160;7.026;2023-04-25T09:08:11;4.55;;;1.48;;
52470;SDS011;38382;53.160;7.026;2023-04-25T09:10:37;4.80;;;1.50;;
52470;SDS011;38382;53.160;7.026;2023-04-25T09:15:46;5.70;;;1.60;;
52470;SDS011;38382;53.160;7.026;2023-04-25T09:18:13;5.82;;;1.48;;
52470;SDS011;38382;53.160;7.026;2023-04-25T09:20:46;6.43;;;1.80;;
52470;SDS011;38382;53.160;7.026;2023-04-25T09:23:12;5.22;;;1.50;;
52470;SDS011;38382;53.160;7.026;2023-04-25T09:25:39;8.25;;;1.70;;
52470;SDS011;38382;53.160;7.026;2023-04-25T09:28:05;5.68;;;1.52;;
52470;SDS011;38382;53.160;7.026;2023-04-25T09:30:32;7.07;;;1.90;;
52470;SDS011;38382;53.160;7.026;2023-04-25T09:33:06;5.70;;;1.70;;
52470;SDS011;38382;53.160;7.026;2023-04-25T09:38:13;7.60;;;1.98;;
52470;SDS011;38382;53.160;7.026;2023-04-25T09:40:43;13.05;;;2.10;;
52470;SDS011;38382;53.160;7.026;2023-04-25T09:43:17;7.60;;;1.67;;
52470;SDS011;38382;53.160;7.026;2023-04-25T09:45:45;11.70;;;2.00;;
52470;SDS011;38382;53.160;7.026;2023-04-25T09:48:16;9.88;;;1.80;;
52470;SDS011;38382;53.160;7.026;2023-04-25T09:50:43;12.53;;;1.90;;
52470;SDS011;38382;53.160;7.026;2023-04-25T09:53:09;7.45;;;1.77;;
52470;SDS011;38382;53.160;7.026;2023-04-25T09:55:35;7.63;;;1.80;;
52470;SDS011;38382;53.160;7.026;2023-04-25T09:58:04;9.82;;;2.03;;
52470;SDS011;38382;53.160;7.026;2023-04-25T10:00:32;6.50;;;1.63;;
52470;SDS011;38382;53.160;7.026;2023-04-25T10:03:00;7.28;;;1.67;;
52470;SDS011;38382;53.160;7.026;2023-04-25T10:05:30;3.78;;;1.48;;
52470;SDS011;38382;53.160;7.026;2023-04-25T10:08:02;7.78;;;1.63;;
52470;SDS011;38382;53.160;7.026;2023-04-25T10:10:31;6.30;;;1.60;;
52470;SDS011;38382;53.160;7.026;2023-04-25T10:13:02;5.78;;;1.80;;
52470;SDS011;38382;53.160;7.026;2023-04-25T10:15:29;10.13;;;2.05;;
52470;SDS011;38382;53.160;7.026;2023-04-25T10:17:55;8.60;;;2.20;;
52470;SDS011;38382;53.160;7.026;2023-04-25T10:20:22;10.13;;;1.73;;
52470;SDS011;38382;53.160;7.026;2023-04-25T10:22:48;8.13;;;1.77;;
52470;SDS011;38382;53.160;7.026;2023-04-25T10:25:19;8.20;;;1.85;;
52470;SDS011;38382;53.160;7.026;2023-04-25T10:27:45;7.20;;;1.77;;
52470;SDS011;38382;53.160;7.026;2023-04-25T10:30:13;7.28;;;1.80;;
52470;SDS011;38382;53.160;7.026;2023-04-25T10:32:43;5.95;;;1.65;;
52470;SDS011;38382;53.160;7.026;2023-04-25T10:35:11;7.40;;;1.73;;
52470;SDS011;38382;53.160;7.026;2023-04-25T10:37:42;5.97;;;1.50;;
52470;SDS011;38382;53.160;7.026;2023-04-25T10:40:39;7.70;;;1.50;;
52470;SDS011;38382;53.160;7.026;2023-04-25T10:46:22;7.20;;;2.25;;
52470;SDS011;38382;53.160;7.026;2023-04-25T10:48:56;7.95;;;1.80;;
52470;SDS011;38382;53.160;7.026;2023-04-25T10:51:28;7.05;;;1.60;;
52470;SDS011;38382;53.160;7.026;2023-04-25T10:54:04;6.88;;;1.63;;
52470;SDS011;38382;53.160;7.026;2023-04-25T10:56:32;4.70;;;1.50;;
52470;SDS011;38382;53.160;7.026;2023-04-25T11:01:39;3.00;;;1.40;;
52470;SDS011;38382;53.160;7.026;2023-04-25T11:04:06;4.60;;;1.40;;
52470;SDS011;38382;53.160;7.026;2023-04-25T11:09:45;7.18;;;1.58;;
52470;SDS011;38382;53.160;7.026;2023-04-25T11:12:11;5.72;;;1.80;;
52470;SDS011;38382;53.160;7.026;2023-04-25T11:14:38;11.15;;;1.98;;
52470;SDS011;38382;53.160;7.026;2023-04-25T11:17:03;6.00;;;1.80;;
52470;SDS011;38382;53.160;7.026;2023-04-25T11:19:30;5.43;;;1.95;;
52470;SDS011;38382;53.160;7.026;2023-04-25T11:21:56;5.55;;;1.60;;
52470;SDS011;38382;53.160;7.026;2023-04-25T11:24:27;8.30;;;1.80;;
52470;SDS011;38382;53.160;7.026;2023-04-25T11:27:01;6.95;;;1.90;;
52470;SDS011;38382;53.160;7.026;2023-04-25T11:29:28;7.35;;;1.80;;
52470;SDS011;38382;53.160;7.026;2023-04-25T11:31:55;8.45;;;1.70;;
52470;SDS011;38382;53.160;7.026;2023-04-25T11:34:25;5.55;;;1.70;;
52470;SDS011;38382;53.160;7.026;2023-04-25T11:36:51;7.30;;;1.75;;
52470;SDS011;38382;53.160;7.026;2023-04-25T11:39:21;4.93;;;1.70;;
52470;SDS011;38382;53.160;7.026;2023-04-25T11:41:48;9.23;;;1.75;;
52470;SDS011;38382;53.160;7.026;2023-04-25T11:44:16;6.68;;;1.80;;
52470;SDS011;38382;53.160;7.026;2023-04-25T11:46:44;7.95;;;1.77;;
52470;SDS011;38382;53.160;7.026;2023-04-25T11:49:10;7.25;;;2.20;;
52470;SDS011;38382;53.160;7.026;2023-04-25T11:51:42;5.43;;;1.52;;
52470;SDS011;38382;53.160;7.026;2023-04-25T11:54:10;6.57;;;1.85;;
52470;SDS011;38382;53.160;7.026;2023-04-25T11:56:37;5.47;;;1.42;;
52470;SDS011;38382;53.160;7.026;2023-04-25T11:59:05;4.68;;;1.60;;
52470;SDS011;38382;53.160;7.026;2023-04-25T12:03:57;5.68;;;1.70;;
52470;SDS011;38382;53.160;7.026;2023-04-25T12:06:30;3.95;;;1.60;;
52470;SDS011;38382;53.160;7.026;2023-04-25T12:09:06;5.32;;;2.13;;
52470;SDS011;38382;53.160;7.026;2023-04-25T12:11:40;6.90;;;1.77;;
52470;SDS011;38382;53.160;7.026;2023-04-25T12:16:52;5.53;;;1.63;;
52470;SDS011;38382;53.160;7.026;2023-04-25T12:19:20;5.43;;;1.52;;
52470;SDS011;38382;53.160;7.026;2023-04-25T12:21:47;5.70;;;1.85;;
52470;SDS011;38382;53.160;7.026;2023-04-25T12:24:14;11.90;;;2.13;;
52470;SDS011;38382;53.160;7.026;2023-04-25T12:26:52;12.85;;;1.90;;
52470;SDS011;38382;53.160;7.026;2023-04-25T12:29:29;7.28;;;1.70;;
52470;SDS011;38382;53.160;7.026;2023-04-25T12:31:57;7.13;;;1.92;;
52470;SDS011;38382;53.160;7.026;2023-04-25T12:34:23;8.43;;;1.98;;
52470;SDS011;38382;53.160;7.026;2023-04-25T12:36:50;9.63;;;2.00;;
52470;SDS011;38382;53.160;7.026;2023-04-25T12:41:43;9.35;;;2.10;;
52470;SDS011;38382;53.160;7.026;2023-04-25T12:44:09;8.10;;;1.80;;
52470;SDS011;38382;53.160;7.026;2023-04-25T12:46:36;8.23;;;2.30;;
52470;SDS011;38382;53.160;7.026;2023-04-25T12:49:03;7.93;;;1.90;;
52470;SDS011;38382;53.160;7.026;2023-04-25T12:51:29;5.68;;;1.70;;
52470;SDS011;38382;53.160;7.026;2023-04-25T12:53:57;6.47;;;1.60;;
52470;SDS011;38382;53.160;7.026;2023-04-25T12:56:26;8.45;;;1.55;;
52470;SDS011;38382;53.160;7.026;2023-04-25T12:58:53;7.60;;;1.75;;
52470;SDS011;38382;53.160;7.026;2023-04-25T13:01:19;7.60;;;1.70;;
52470;SDS011;38382;53.160;7.026;2023-04-25T13:03:45;6.65;;;1.60;;
52470;SDS011;38382;53.160;7.026;2023-04-25T13:06:11;5.60;;;1.63;;
52470;SDS011;38382;53.160;7.026;2023-04-25T13:08:38;5.85;;;1.80;;
52470;SDS011;38382;53.160;7.026;2023-04-25T13:11:04;5.22;;;1.77;;
52470;SDS011;38382;53.160;7.026;2023-04-25T13:13:31;6.30;;;1.75;;
52470;SDS011;38382;53.160;7.026;2023-04-25T13:16:00;8.82;;;1.80;;
52470;SDS011;38382;53.160;7.026;2023-04-25T13:18:32;7.03;;;1.65;;
52470;SDS011;38382;53.160;7.026;2023-04-25T13:20:59;4.55;;;1.50;;
52470;SDS011;38382;53.160;7.026;2023-04-25T13:23:26;7.75;;;2.03;;
52470;SDS011;38382;53.160;7.026;2023-04-25T13:25:52;5.80;;;1.60;;
52470;SDS011;38382;53.160;7.026;2023-04-25T13:28:18;5.55;;;1.40;;
52470;SDS011;38382;53.160;7.026;2023-04-25T13:30:44;8.25;;;2.28;;
52470;SDS011;38382;53.160;7.026;2023-04-25T13:33:10;8.98;;;2.05;;
52470;SDS011;38382;53.160;7.026;2023-04-25T13:35:37;7.80;;;1.92;;
52470;SDS011;38382;53.160;7.026;2023-04-25T13:38:03;6.55;;;1.77;;
52470;SDS011;38382;53.160;7.026;2023-04-25T13:40:29;8.13;;;1.95;;
52470;SDS011;38382;53.160;7.026;2023-04-25T13:42:57;8.27;;;2.22;;
52470;SDS011;38382;53.160;7.026;2023-04-25T13:45:22;5.53;;;1.98;;
52470;SDS011;38382;53.160;7.026;2023-04-25T13:47:48;4.72;;;1.75;;
52470;SDS011;38382;53.160;7.026;2023-04-25T13:50:14;6.40;;;1.63;;
52470;SDS011;38382;53.160;7.026;2023-04-25T13:52:41;9.13;;;1.60;;
52470;SDS011;38382;53.160;7.026;2023-04-25T13:55:07;7.82;;;1.75;;
52470;SDS011;38382;53.160;7.026;2023-04-25T13:57:33;7.95;;;2.10;;
52470;SDS011;38382;53.160;7.026;2023-04-25T14:00:00;6.38;;;1.52;;
52470;SDS011;38382;53.160;7.026;2023-04-25T14:02:31;8.50;;;1.92;;
52470;SDS011;38382;53.160;7.026;2023-04-25T14:04:57;8.63;;;2.03;;
52470;SDS011;38382;53.160;7.026;2023-04-25T14:07:22;8.32;;;2.10;;
52470;SDS011;38382;53.160;7.026;2023-04-25T14:09:48;8.90;;;2.00;;
52470;SDS011;38382;53.160;7.026;2023-04-25T14:12:15;8.95;;;2.20;;
52470;SDS011;38382;53.160;7.026;2023-04-25T14:14:41;5.90;;;1.90;;
52470;SDS011;38382;53.160;7.026;2023-04-25T14:17:07;10.85;;;2.00;;
52470;SDS011;38382;53.160;7.026;2023-04-25T14:19:33;8.27;;;2.22;;
52470;SDS011;38382;53.160;7.026;2023-04-25T14:22:00;6.95;;;1.90;;
52470;SDS011;38382;53.160;7.026;2023-04-25T14:24:25;7.93;;;1.67;;
52470;SDS011;38382;53.160;7.026;2023-04-25T14:26:52;4.90;;;1.42;;
52470;SDS011;38382;53.160;7.026;2023-04-25T14:29:18;5.43;;;1.40;;
52470;SDS011;38382;53.160;7.026;2023-04-25T14:31:44;7.57;;;1.70;;
52470;SDS011;38382;53.160;7.026;2023-04-25T14:34:10;3.92;;;1.50;;
52470;SDS011;38382;53.160;7.026;2023-04-25T14:36:36;5.80;;;1.77;;
52470;SDS011;38382;53.160;7.026;2023-04-25T14:39:02;7.28;;;1.65;;
52470;SDS011;38382;53.160;7.026;2023-04-25T14:41:30;6.63;;;1.67;;
52470;SDS011;38382;53.160;7.026;2023-04-25T14:43:55;9.10;;;1.73;;
52470;SDS011;38382;53.160;7.026;2023-04-25T14:46:22;6.75;;;1.85;;
52470;SDS011;38382;53.160;7.026;2023-04-25T14:48:48;4.60;;;1.45;;
52470;SDS011;38382;53.160;7.026;2023-04-25T14:51:14;8.10;;;1.92;;
52470;SDS011;38382;53.160;7.026;2023-04-25T14:53:40;6.40;;;1.85;;
52470;SDS011;38382;53.160;7.026;2023-04-25T14:56:06;6.60;;;1.80;;
52470;SDS011;38382;53.160;7.026;2023-04-25T14:58:33;5.63;;;1.88;;
52470;SDS011;38382;53.160;7.026;2023-04-25T15:01:00;7.38;;;1.73;;
52470;SDS011;38382;53.160;7.026;2023-04-25T15:03:26;7.72;;;1.70;;
52470;SDS011;38382;53.160;7.026;2023-04-25T15:05:52;8.00;;;1.80;;
52470;SDS011;38382;53.160;7.026;2023-04-25T15:08:21;6.07;;;1.70;;
52470;SDS011;38382;53.160;7.026;2023-04-25T15:10:47;7.03;;;1.70;;
52470;SDS011;38382;53.160;7.026;2023-04-25T15:13:13;5.95;;;1.60;;
52470;SDS011;38382;53.160;7.026;2023-04-25T15:15:40;7.70;;;1.80;;
52470;SDS011;38382;53.160;7.026;2023-04-25T15:18:06;7.65;;;1.92;;
52470;SDS011;38382;53.160;7.026;2023-04-25T15:20:31;6.65;;;1.52;;